Marie Alexandra — FGRA — position and weather

sailwx.info

Track history (hours):
 
Tides and Currents Weather Stations Pressure Air Temp Water Temp Dewpoint Dewpoint Depression Visibility Wind Speed Wind Dir Waves Ship Positions

Marie Alexandra

Last reported at 2017-Nov-19 14:16 UTC. Time now 2017-Nov-21 10:21 UTC.
Position N 49°01' W 007°18'.

Length 18 m.

Type: Fishing. MMSI: 227428000.

Date/timePositionNaut miles runAvg speedWind from/ knotsBaromVisibWave heightAir tempDewpointWater temp
2017-Nov-19 14:16N 49°01' W 007°18'14 0.6
2017-Nov-18 15:40N 49°11' W 007°03'6 0.6
2017-Nov-18 06:12N 49°16' W 006°58'29 8.6
2017-Nov-18 02:49N 48°54' W 006°29'29 9.6
2017-Nov-17 23:50N 48°33' W 005°59'8 9.7
2017-Nov-17 23:03N 48°27' W 005°52'4 9.5
2017-Nov-17 22:38N 48°24' W 005°47'5 9.5
2017-Nov-17 22:05N 48°20' W 005°42'5 9.2
2017-Nov-17 21:35N 48°17' W 005°37'1 9.1
2017-Nov-17 21:30N 48°17' W 005°36'5 8.9
2017-Nov-17 20:59N 48°13' W 005°32'4 8.8
2017-Nov-17 20:29N 48°10' W 005°27'4 8.8
2017-Nov-17 20:00N 48°08' W 005°22'4 8.6
2017-Nov-17 19:30N 48°05' W 005°17'4 8.5
2017-Nov-17 19:00N 48°02' W 005°12'4 7.8
2017-Nov-17 18:27N 47°60' W 005°07'4 8.1
2017-Nov-17 18:00N 47°59' W 005°01'4 7.3
2017-Nov-17 17:30N 47°58' W 004°56'4 7.7
2017-Nov-17 17:00N 47°56' W 004°51'4 7.7
2017-Nov-17 16:31N 47°54' W 004°46'4 8.1
2017-Nov-17 16:00N 47°52' W 004°41'4 8.5
2017-Nov-17 15:30N 47°50' W 004°35'5 8.7
2017-Nov-17 14:57N 47°48' W 004°29'4 8.7
2017-Nov-17 14:29N 47°46' W 004°24'4 8.1
2017-Nov-17 14:00N 47°47' W 004°18'1 0.9
2017-Nov-17 12:33N 47°48' W 004°17'0 4.0
2017-Nov-17 12:25N 47°47' W 004°17'1 2.2
2017-Nov-17 11:58N 47°47' W 004°18'2 1.9
2017-Nov-17 11:10N 47°48' W 004°17'0 0.0
2017-Nov-17 09:58N 47°48' W 004°17'0 0.0
2017-Nov-17 09:26N 47°48' W 004°17'0 0.0
2017-Nov-17 08:59N 47°48' W 004°17'0 0.0
2017-Nov-17 08:20N 47°48' W 004°17'0 0.0
2017-Nov-17 03:51N 47°48' W 004°17'0 0.0
2017-Nov-17 01:48N 47°48' W 004°17'0 0.0
2017-Nov-16 14:58N 47°48' W 004°17'0 0.0
2017-Nov-16 14:20N 47°48' W 004°17'0 0.0
2017-Nov-16 13:58N 47°48' W 004°17'0 0.0
2017-Nov-16 13:21N 47°48' W 004°17'0 0.0
2017-Nov-16 11:55N 47°48' W 004°17'0 0.1
2017-Nov-16 10:19N 47°48' W 004°17'0 0.3
2017-Nov-16 09:44N 47°48' W 004°17'0 0.0
2017-Nov-16 04:51N 47°48' W 004°17'0 0.0
2017-Nov-16 04:21N 47°48' W 004°17'0 0.0
2017-Nov-16 03:39N 47°48' W 004°17'0 0.0
2017-Nov-16 02:00N 47°48' W 004°17'0 0.0
2017-Nov-16 00:14N 47°48' W 004°17'0 0.0
2017-Nov-15 23:26N 47°48' W 004°17'0 0.0
2017-Nov-15 22:56N 47°48' W 004°17'0 0.0
2017-Nov-15 22:12N 47°48' W 004°17'0 0.0
2017-Nov-15 21:18N 47°48' W 004°17'0 0.0
2017-Nov-15 20:36N 47°48' W 004°17'0 0.0
2017-Nov-15 17:54N 47°48' W 004°17'0 0.0
2017-Nov-15 17:05N 47°48' W 004°17'0 0.0
2017-Nov-15 14:14N 47°48' W 004°17'0 0.0
2017-Nov-15 13:38N 47°48' W 004°17'0 0.0
2017-Nov-15 13:30N 47°48' W 004°17'0 0.0
2017-Nov-15 12:17N 47°48' W 004°17'0 0.0
2017-Nov-15 11:17N 47°48' W 004°17'0 0.0
2017-Nov-15 10:29N 47°48' W 004°17'0 0.0
2017-Nov-15 09:25N 47°48' W 004°17'0 0.0
2017-Nov-15 08:07N 47°48' W 004°17'0 0.0
2017-Nov-14 10:16N 47°48' W 004°17'0 0.0
2017-Nov-14 09:43N 47°48' W 004°17'0 0.0
2017-Nov-14 03:40N 47°48' W 004°17'0 0.0
2017-Nov-14 02:47N 47°48' W 004°17'0 0.0
2017-Nov-14 01:56N 47°48' W 004°17'0 0.0
2017-Nov-14 00:46N 47°48' W 004°17'0 0.0
2017-Nov-13 23:38N 47°48' W 004°17'0 0.0
2017-Nov-13 23:23N 47°48' W 004°17'1 0.0
2017-Nov-12 06:40N 47°47' W 004°18'1 5.9
2017-Nov-12 06:29N 47°46' W 004°19'2 4.1
2017-Nov-12 05:58N 47°45' W 004°21'4 9.4
2017-Nov-12 05:30N 47°47' W 004°27'5 8.9
2017-Nov-12 04:59N 47°49' W 004°33'4 9.0
2017-Nov-12 04:30N 47°52' W 004°38'4 8.7
2017-Nov-12 04:00N 47°54' W 004°44'4 8.8
2017-Nov-12 03:31N 47°56' W 004°50'4 9.0
2017-Nov-12 03:00N 47°58' W 004°56'5 9.4
2017-Nov-12 02:30N 47°60' W 005°02'5 9.5
2017-Nov-12 02:00N 48°02' W 005°08'5 9.2
2017-Nov-12 01:30N 48°04' W 005°14'5 9.1
2017-Nov-12 01:00N 48°07' W 005°20'5 9.0
2017-Nov-12 00:28N 48°09' W 005°27'5 9.0
2017-Nov-11 23:58N 48°11' W 005°33'5 9.2
2017-Nov-11 23:26N 48°13' W 005°39'74 5.8
2017-Nov-11 10:31N 48°58' W 007°09'  
Track history (hours):
 
Tides and Currents Weather Stations Pressure Air Temp Water Temp Dewpoint Dewpoint Depression Visibility Wind Speed Wind Dir Waves Ship Positions

Marie Alexandra

Last reported at 2017-Nov-19 14:16 UTC. Time now 2017-Nov-21 10:21 UTC.
Position N 49°01' W 007°18'.

Length 18 m.

Type: Fishing. MMSI: 227428000.

Date/timePositionNaut miles runAvg speedWind from/ knotsBaromVisibWave heightAir tempDewpointWater temp
2017-Nov-19 14:16N 49°01' W 007°18'14 0.6
2017-Nov-18 15:40N 49°11' W 007°03'6 0.6
2017-Nov-18 06:12N 49°16' W 006°58'29 8.6
2017-Nov-18 02:49N 48°54' W 006°29'29 9.6
2017-Nov-17 23:50N 48°33' W 005°59'8 9.7
2017-Nov-17 23:03N 48°27' W 005°52'4 9.5
2017-Nov-17 22:38N 48°24' W 005°47'5 9.5
2017-Nov-17 22:05N 48°20' W 005°42'5 9.2
2017-Nov-17 21:35N 48°17' W 005°37'1 9.1
2017-Nov-17 21:30N 48°17' W 005°36'5 8.9
2017-Nov-17 20:59N 48°13' W 005°32'4 8.8
2017-Nov-17 20:29N 48°10' W 005°27'4 8.8
2017-Nov-17 20:00N 48°08' W 005°22'4 8.6
2017-Nov-17 19:30N 48°05' W 005°17'4 8.5
2017-Nov-17 19:00N 48°02' W 005°12'4 7.8
2017-Nov-17 18:27N 47°60' W 005°07'4 8.1
2017-Nov-17 18:00N 47°59' W 005°01'4 7.3
2017-Nov-17 17:30N 47°58' W 004°56'4 7.7
2017-Nov-17 17:00N 47°56' W 004°51'4 7.7
2017-Nov-17 16:31N 47°54' W 004°46'4 8.1
2017-Nov-17 16:00N 47°52' W 004°41'4 8.5
2017-Nov-17 15:30N 47°50' W 004°35'5 8.7
2017-Nov-17 14:57N 47°48' W 004°29'4 8.7
2017-Nov-17 14:29N 47°46' W 004°24'4 8.1
2017-Nov-17 14:00N 47°47' W 004°18'1 0.9
2017-Nov-17 12:33N 47°48' W 004°17'0 4.0
2017-Nov-17 12:25N 47°47' W 004°17'1 2.2
2017-Nov-17 11:58N 47°47' W 004°18'2 1.9
2017-Nov-17 11:10N 47°48' W 004°17'0 0.0
2017-Nov-17 09:58N 47°48' W 004°17'0 0.0
2017-Nov-17 09:26N 47°48' W 004°17'0 0.0
2017-Nov-17 08:59N 47°48' W 004°17'0 0.0
2017-Nov-17 08:20N 47°48' W 004°17'0 0.0
2017-Nov-17 03:51N 47°48' W 004°17'0 0.0
2017-Nov-17 01:48N 47°48' W 004°17'0 0.0
2017-Nov-16 14:58N 47°48' W 004°17'0 0.0
2017-Nov-16 14:20N 47°48' W 004°17'0 0.0
2017-Nov-16 13:58N 47°48' W 004°17'0 0.0
2017-Nov-16 13:21N 47°48' W 004°17'0 0.0
2017-Nov-16 11:55N 47°48' W 004°17'0 0.1
2017-Nov-16 10:19N 47°48' W 004°17'0 0.3
2017-Nov-16 09:44N 47°48' W 004°17'0 0.0
2017-Nov-16 04:51N 47°48' W 004°17'0 0.0
2017-Nov-16 04:21N 47°48' W 004°17'0 0.0
2017-Nov-16 03:39N 47°48' W 004°17'0 0.0
2017-Nov-16 02:00N 47°48' W 004°17'0 0.0
2017-Nov-16 00:14N 47°48' W 004°17'0 0.0
2017-Nov-15 23:26N 47°48' W 004°17'0 0.0
2017-Nov-15 22:56N 47°48' W 004°17'0 0.0
2017-Nov-15 22:12N 47°48' W 004°17'0 0.0
2017-Nov-15 21:18N 47°48' W 004°17'0 0.0
2017-Nov-15 20:36N 47°48' W 004°17'0 0.0
2017-Nov-15 17:54N 47°48' W 004°17'0 0.0
2017-Nov-15 17:05N 47°48' W 004°17'0 0.0
2017-Nov-15 14:14N 47°48' W 004°17'0 0.0
2017-Nov-15 13:38N 47°48' W 004°17'0 0.0
2017-Nov-15 13:30N 47°48' W 004°17'0 0.0
2017-Nov-15 12:17N 47°48' W 004°17'0 0.0
2017-Nov-15 11:17N 47°48' W 004°17'0 0.0
2017-Nov-15 10:29N 47°48' W 004°17'0 0.0
2017-Nov-15 09:25N 47°48' W 004°17'0 0.0
2017-Nov-15 08:07N 47°48' W 004°17'0 0.0
2017-Nov-14 10:16N 47°48' W 004°17'0 0.0
2017-Nov-14 09:43N 47°48' W 004°17'0 0.0
2017-Nov-14 03:40N 47°48' W 004°17'0 0.0
2017-Nov-14 02:47N 47°48' W 004°17'0 0.0
2017-Nov-14 01:56N 47°48' W 004°17'0 0.0
2017-Nov-14 00:46N 47°48' W 004°17'0 0.0
2017-Nov-13 23:38N 47°48' W 004°17'0 0.0
2017-Nov-13 23:23N 47°48' W 004°17'1 0.0
2017-Nov-12 06:40N 47°47' W 004°18'1 5.9
2017-Nov-12 06:29N 47°46' W 004°19'2 4.1
2017-Nov-12 05:58N 47°45' W 004°21'4 9.4
2017-Nov-12 05:30N 47°47' W 004°27'5 8.9
2017-Nov-12 04:59N 47°49' W 004°33'4 9.0
2017-Nov-12 04:30N 47°52' W 004°38'4 8.7
2017-Nov-12 04:00N 47°54' W 004°44'4 8.8
2017-Nov-12 03:31N 47°56' W 004°50'4 9.0
2017-Nov-12 03:00N 47°58' W 004°56'5 9.4
2017-Nov-12 02:30N 47°60' W 005°02'5 9.5
2017-Nov-12 02:00N 48°02' W 005°08'5 9.2
2017-Nov-12 01:30N 48°04' W 005°14'5 9.1
2017-Nov-12 01:00N 48°07' W 005°20'5 9.0
2017-Nov-12 00:28N 48°09' W 005°27'5 9.0
2017-Nov-11 23:58N 48°11' W 005°33'5 9.2
2017-Nov-11 23:26N 48°13' W 005°39'74 5.8
2017-Nov-11 10:31N 48°58' W 007°09'  

Dump ship's entire track history